Bookmark and Share
Track history (hours):
 

Gulf

Last reported at 2014-Apr-18 07:23 UTC. Time now 2014-Apr-21 15:12 UTC.
Position N 38°09' W 009°40'.

Length 96 m; draft 3 m.

Type: Cargo ship. MMSI: 304320000.

NotesDate/timePositionNaut miles runAvg speedWind from/ knotsBaromVisibWave heightAir tempDewpointWater temp
2014-Apr-18 07:23N 38°09' W 009°40'6 7.3
2014-Apr-18 06:33N 38°03' W 009°38'7 6.8
2014-Apr-18 05:32N 37°56' W 009°37'7 6.8
2014-Apr-18 04:33N 37°50' W 009°35'7 6.6
2014-Apr-18 03:26N 37°42' W 009°33'6 6.3
2014-Apr-18 02:33N 37°37' W 009°31'7 6.3
2014-Apr-18 01:24N 37°30' W 009°29'6 6.4
2014-Apr-18 00:32N 37°24' W 009°28'6 6.4
2014-Apr-17 23:33N 37°18' W 009°26'7 6.9
2014-Apr-17 22:33N 37°12' W 009°24'7 6.8
2014-Apr-17 21:34N 37°05' W 009°22'7 6.5
2014-Apr-17 20:33N 36°59' W 009°20'6 6.2
2014-Apr-17 19:33N 36°53' W 009°17'9 6.6
2014-Apr-17 18:16N 36°47' W 009°10'13 7.5
2014-Apr-17 16:31N 36°42' W 008°54'7 7.5
2014-Apr-17 15:34N 36°42' W 008°45'10 7.8
2014-Apr-17 14:14N 36°43' W 008°32'5 7.8
2014-Apr-17 13:34N 36°43' W 008°26'8 7.8
2014-Apr-17 12:33N 36°44' W 008°16'8 7.7
2014-Apr-17 11:34N 36°45' W 008°07'9 7.7
2014-Apr-17 10:23N 36°45' W 007°55'  

Dump ship's entire track history

sailing weather and tide predictions

Gulf — V2BB5 — position and weather